LHBP/BUD METAR and TAF weather

Enter ICAO airport designator
Station Type Date Time Source
LHBP METAR 2021/10/20 07:30 UTC NOAA

LHBP 200730Z 16008KT 130V190 9000 NSC 10/06 Q1025 NOSIG


Station Type Date Time Source
LHBP Decoded METAR 2021/10/20 07:30 UTC NOAA

Budapest / Ferihegy, Hungary (LHBP) 47-26N 019-16E 185M
Oct 20, 2021 - 03:30 AM EDT / 2021.10.20 0730 UTC
Wind: from the SSE (160 degrees) at 9 MPH (8 KT) (direction variable):0
Visibility: 5 mile(s):0
Temperature: 50 F (10 C)
Dew Point: 42 F (6 C)
Relative Humidity: 76%
Pressure (altimeter): 30.27 in. Hg (1025 hPa)
ob: LHBP 200730Z 16008KT 130V190 9000 NSC 10/06 Q1025 NOSIG
cycle: 7

Station Type Date Time Source
LHBP TAF 2021/10/20 06:27 UTC NOAA

TAF TAF LHBP 200515Z 2006/2106 12004KT CAVOK
BECMG 2008/2010 15009KT
BECMG 2019/2021 18013KT

Example: see airport list